sensor_id;sensor_type;location;lat;lon;timestamp;pressure;altitude;pressure_sealevel;temperature;humidity
39405;BME280;25121;51.090;17.038;2022-11-23T00:00:41;98955.41;;;4.02;70.55
39405;BME280;25121;51.090;17.038;2022-11-23T00:02:03;98951.25;;;3.99;70.55
39405;BME280;25121;51.090;17.038;2022-11-23T00:03:29;98963.03;;;3.97;70.65
39405;BME280;25121;51.090;17.038;2022-11-23T00:04:53;98950.91;;;3.94;70.69
39405;BME280;25121;51.090;17.038;2022-11-23T00:06:16;98950.41;;;3.91;70.50
39405;BME280;25121;51.090;17.038;2022-11-23T00:07:39;98949.72;;;3.88;70.74
39405;BME280;25121;51.090;17.038;2022-11-23T00:09:04;98952.53;;;3.87;70.64
39405;BME280;25121;51.090;17.038;2022-11-23T00:10:29;98948.22;;;3.86;70.85
39405;BME280;25121;51.090;17.038;2022-11-23T00:11:53;98949.38;;;3.83;70.80
39405;BME280;25121;51.090;17.038;2022-11-23T00:13:15;98948.56;;;3.83;70.83
39405;BME280;25121;51.090;17.038;2022-11-23T00:14:36;98941.75;;;3.80;71.00
39405;BME280;25121;51.090;17.038;2022-11-23T00:16:07;98938.22;;;3.80;71.07
39405;BME280;25121;51.090;17.038;2022-11-23T00:17:28;98948.84;;;3.80;71.07
39405;BME280;25121;51.090;17.038;2022-11-23T00:18:51;98944.53;;;3.79;71.14
39405;BME280;25121;51.090;17.038;2022-11-23T00:20:19;98949.03;;;3.78;71.16
39405;BME280;25121;51.090;17.038;2022-11-23T00:21:41;98947.34;;;3.77;71.26
39405;BME280;25121;51.090;17.038;2022-11-23T00:23:03;98942.38;;;3.74;71.19
39405;BME280;25121;51.090;17.038;2022-11-23T00:24:29;98960.81;;;3.76;71.11
39405;BME280;25121;51.090;17.038;2022-11-23T00:25:51;98959.13;;;3.75;71.25
39405;BME280;25121;51.090;17.038;2022-11-23T00:27:18;98955.66;;;3.74;71.07
39405;BME280;25121;51.090;17.038;2022-11-23T00:28:48;98956.47;;;3.75;71.20
39405;BME280;25121;51.090;17.038;2022-11-23T00:30:10;98962.66;;;3.75;71.32
39405;BME280;25121;51.090;17.038;2022-11-23T00:31:56;98966.97;;;3.76;71.48
39405;BME280;25121;51.090;17.038;2022-11-23T00:33:18;98958.97;;;3.76;71.39
39405;BME280;25121;51.090;17.038;2022-11-23T00:34:43;98955.50;;;3.76;71.35
39405;BME280;25121;51.090;17.038;2022-11-23T00:36:07;98958.97;;;3.76;71.43
39405;BME280;25121;51.090;17.038;2022-11-23T00:37:29;98962.66;;;3.75;71.54
39405;BME280;25121;51.090;17.038;2022-11-23T01:02:53;98957.00;;;3.44;71.97
39405;BME280;25121;51.090;17.038;2022-11-23T01:04:20;98952.00;;;3.41;72.15
39405;BME280;25121;51.090;17.038;2022-11-23T01:14:05;98963.13;;;3.44;72.59
39405;BME280;25121;51.090;17.038;2022-11-23T01:15:28;98966.63;;;3.45;72.53
39405;BME280;25121;51.090;17.038;2022-11-23T01:16:56;98969.13;;;3.47;72.42
39405;BME280;25121;51.090;17.038;2022-11-23T01:18:22;98968.13;;;3.48;72.49
39405;BME280;25121;51.090;17.038;2022-11-23T01:19:48;98973.28;;;3.49;72.45
39405;BME280;25121;51.090;17.038;2022-11-23T01:21:15;98966.97;;;3.50;72.40
39405;BME280;25121;51.090;17.038;2022-11-23T01:22:38;98980.09;;;3.52;72.35
39405;BME280;25121;51.090;17.038;2022-11-23T01:24:04;98974.66;;;3.53;72.37
39405;BME280;25121;51.090;17.038;2022-11-23T01:25:30;98974.66;;;3.53;72.38
39405;BME280;25121;51.090;17.038;2022-11-23T01:27:07;98977.13;;;3.55;72.40
39405;BME280;25121;51.090;17.038;2022-11-23T01:28:42;98978.63;;;3.57;72.51
39405;BME280;25121;51.090;17.038;2022-11-23T01:30:25;98979.19;;;3.61;72.20
39405;BME280;25121;51.090;17.038;2022-11-23T01:31:51;98987.81;;;3.63;72.36
39405;BME280;25121;51.090;17.038;2022-11-23T01:33:17;98985.16;;;3.63;72.26
39405;BME280;25121;51.090;17.038;2022-11-23T01:34:53;98981.66;;;3.62;72.11
39405;BME280;25121;51.090;17.038;2022-11-23T01:45:58;98982.53;;;3.71;72.11
39405;BME280;25121;51.090;17.038;2022-11-23T01:50:16;98980.38;;;3.75;72.12
39405;BME280;25121;51.090;17.038;2022-11-23T01:51:40;98982.91;;;3.76;71.91
39405;BME280;25121;51.090;17.038;2022-11-23T01:53:05;98973.09;;;3.77;72.05
39405;BME280;25121;51.090;17.038;2022-11-23T01:54:30;98987.06;;;3.79;71.95
39405;BME280;25121;51.090;17.038;2022-11-23T01:55:54;98974.59;;;3.79;71.90
39405;BME280;25121;51.090;17.038;2022-11-23T01:57:22;98983.25;;;3.81;71.67
39405;BME280;25121;51.090;17.038;2022-11-23T01:58:49;98984.91;;;3.82;71.71
39405;BME280;25121;51.090;17.038;2022-11-23T02:00:13;98990.06;;;3.84;71.60
39405;BME280;25121;51.090;17.038;2022-11-23T02:01:36;98982.09;;;3.84;71.57
39405;BME280;25121;51.090;17.038;2022-11-23T02:02:58;98982.25;;;3.82;71.62
39405;BME280;25121;51.090;17.038;2022-11-23T02:04:24;98985.75;;;3.83;71.49
39405;BME280;25121;51.090;17.038;2022-11-23T02:05:51;98985.91;;;3.81;71.40
39405;BME280;25121;51.090;17.038;2022-11-23T02:07:19;98988.56;;;3.81;71.33
39405;BME280;25121;51.090;17.038;2022-11-23T02:08:44;98985.22;;;3.79;71.44
39405;BME280;25121;51.090;17.038;2022-11-23T02:10:07;98988.06;;;3.78;71.29
39405;BME280;25121;51.090;17.038;2022-11-23T02:11:28;98987.38;;;3.76;71.49
39405;BME280;25121;51.090;17.038;2022-11-23T02:12:51;98985.69;;;3.75;71.50
39405;BME280;25121;51.090;17.038;2022-11-23T02:14:14;98987.53;;;3.74;71.64
39405;BME280;25121;51.090;17.038;2022-11-23T02:15:43;98984.88;;;3.74;71.57
39405;BME280;25121;51.090;17.038;2022-11-23T02:17:08;98982.22;;;3.74;71.42
39405;BME280;25121;51.090;17.038;2022-11-23T02:18:31;98988.53;;;3.73;71.55
39405;BME280;25121;51.090;17.038;2022-11-23T02:20:02;98984.19;;;3.72;71.55
39405;BME280;25121;51.090;17.038;2022-11-23T02:21:27;98987.84;;;3.71;71.61
39405;BME280;25121;51.090;17.038;2022-11-23T02:22:58;98983.50;;;3.70;71.57
39405;BME280;25121;51.090;17.038;2022-11-23T02:24:32;98984.53;;;3.69;71.64
39405;BME280;25121;51.090;17.038;2022-11-23T02:26:01;98982.88;;;3.68;71.61
39405;BME280;25121;51.090;17.038;2022-11-23T02:27:26;98987.19;;;3.69;71.65
39405;BME280;25121;51.090;17.038;2022-11-23T02:28:53;98988.84;;;3.70;71.80
39405;BME280;25121;51.090;17.038;2022-11-23T02:30:17;98989.69;;;3.71;71.76
39405;BME280;25121;51.090;17.038;2022-11-23T02:31:39;98988.84;;;3.70;71.63
39405;BME280;25121;51.090;17.038;2022-11-23T02:33:03;98992.50;;;3.69;71.62
39405;BME280;25121;51.090;17.038;2022-11-23T02:34:24;98988.00;;;3.70;71.67
39405;BME280;25121;51.090;17.038;2022-11-23T02:35:50;98994.16;;;3.70;71.77
39405;BME280;25121;51.090;17.038;2022-11-23T02:37:14;98990.50;;;3.71;71.88
39405;BME280;25121;51.090;17.038;2022-11-23T02:38:38;98985.06;;;3.73;71.77
39405;BME280;25121;51.090;17.038;2022-11-23T02:40:01;98992.16;;;3.72;71.82
39405;BME280;25121;51.090;17.038;2022-11-23T02:41:34;98992.16;;;3.72;71.65
39405;BME280;25121;51.090;17.038;2022-11-23T02:42:56;98981.53;;;3.72;71.77
39405;BME280;25121;51.090;17.038;2022-11-23T02:44:29;98981.41;;;3.74;71.46
39405;BME280;25121;51.090;17.038;2022-11-23T02:45:57;98982.41;;;3.73;71.62
39405;BME280;25121;51.090;17.038;2022-11-23T02:47:20;98985.88;;;3.73;71.67
39405;BME280;25121;51.090;17.038;2022-11-23T02:48:41;98984.06;;;3.74;71.65
39405;BME280;25121;51.090;17.038;2022-11-23T02:50:04;98984.06;;;3.74;71.51
39405;BME280;25121;51.090;17.038;2022-11-23T02:51:26;98991.03;;;3.75;71.70
39405;BME280;25121;51.090;17.038;2022-11-23T02:52:48;98983.03;;;3.75;71.54
39405;BME280;25121;51.090;17.038;2022-11-23T02:54:11;98987.38;;;3.76;71.62
39405;BME280;25121;51.090;17.038;2022-11-23T02:55:33;98986.56;;;3.75;71.42
39405;BME280;25121;51.090;17.038;2022-11-23T02:56:57;98997.00;;;3.77;71.69
39405;BME280;25121;51.090;17.038;2022-11-23T02:58:19;98994.34;;;3.77;71.46
39405;BME280;25121;51.090;17.038;2022-11-23T02:59:41;98995.03;;;3.79;71.63
39405;BME280;25121;51.090;17.038;2022-11-23T03:01:06;98991.38;;;3.80;71.74
39405;BME280;25121;51.090;17.038;2022-11-23T03:02:28;98986.91;;;3.80;71.67
39405;BME280;25121;51.090;17.038;2022-11-23T03:03:49;98985.91;;;3.81;71.57
39405;BME280;25121;51.090;17.038;2022-11-23T03:05:12;98991.09;;;3.83;71.40
39405;BME280;25121;51.090;17.038;2022-11-23T03:06:34;98978.75;;;3.82;71.38
39405;BME280;25121;51.090;17.038;2022-11-23T03:07:56;98992.06;;;3.82;71.60
39405;BME280;25121;51.090;17.038;2022-11-23T03:09:17;98982.25;;;3.82;71.42
39405;BME280;25121;51.090;17.038;2022-11-23T03:10:40;98977.78;;;3.83;71.65
39405;BME280;25121;51.090;17.038;2022-11-23T03:12:06;98979.44;;;3.84;71.50
39405;BME280;25121;51.090;17.038;2022-11-23T03:13:27;98980.28;;;3.84;71.49
39405;BME280;25121;51.090;17.038;2022-11-23T03:14:50;98975.78;;;3.85;71.39
39405;BME280;25121;51.090;17.038;2022-11-23T03:16:11;98981.97;;;3.85;71.33
39405;BME280;25121;51.090;17.038;2022-11-23T03:17:34;98989.75;;;3.87;71.48
39405;BME280;25121;51.090;17.038;2022-11-23T03:18:56;98985.25;;;3.87;71.32
39405;BME280;25121;51.090;17.038;2022-11-23T03:20:17;98986.13;;;3.88;71.42
39405;BME280;25121;51.090;17.038;2022-11-23T03:21:42;98984.13;;;3.90;71.25
39405;BME280;25121;51.090;17.038;2022-11-23T03:23:03;98989.59;;;3.88;71.10
39405;BME280;25121;51.090;17.038;2022-11-23T03:24:26;98980.81;;;3.88;71.16
39405;BME280;25121;51.090;17.038;2022-11-23T03:25:54;98979.13;;;3.87;71.20
39405;BME280;25121;51.090;17.038;2022-11-23T03:27:19;98981.97;;;3.85;71.25
39405;BME280;25121;51.090;17.038;2022-11-23T03:28:41;98985.59;;;3.84;71.19
39405;BME280;25121;51.090;17.038;2022-11-23T03:30:03;98984.91;;;3.82;71.02
39405;BME280;25121;51.090;17.038;2022-11-23T03:31:28;98989.56;;;3.80;71.14
39405;BME280;25121;51.090;17.038;2022-11-23T03:32:51;98984.25;;;3.80;71.10
39405;BME280;25121;51.090;17.038;2022-11-23T03:34:14;98981.91;;;3.77;71.12
39405;BME280;25121;51.090;17.038;2022-11-23T03:35:39;98975.94;;;3.75;71.13
39405;BME280;25121;51.090;17.038;2022-11-23T03:37:12;98976.91;;;3.74;71.41
39405;BME280;25121;51.090;17.038;2022-11-23T03:38:33;98983.22;;;3.73;71.22
39405;BME280;25121;51.090;17.038;2022-11-23T03:40:10;98989.50;;;3.72;71.23
39405;BME280;25121;51.090;17.038;2022-11-23T03:42:00;98983.50;;;3.70;71.28
39405;BME280;25121;51.090;17.038;2022-11-23T03:43:30;98995.16;;;3.69;71.25
39405;BME280;25121;51.090;17.038;2022-11-23T03:44:53;98991.66;;;3.69;71.36
39405;BME280;25121;51.090;17.038;2022-11-23T03:46:18;98985.81;;;3.65;71.35
39405;BME280;25121;51.090;17.038;2022-11-23T03:47:40;98997.59;;;3.62;71.52
39405;BME280;25121;51.090;17.038;2022-11-23T03:49:02;98988.13;;;3.60;71.53
39405;BME280;25121;51.090;17.038;2022-11-23T03:50:25;98989.13;;;3.59;71.48
39405;BME280;25121;51.090;17.038;2022-11-23T03:51:49;98983.94;;;3.57;71.56
39405;BME280;25121;51.090;17.038;2022-11-23T03:53:11;98978.13;;;3.54;71.67
39405;BME280;25121;51.090;17.038;2022-11-23T03:54:32;98982.44;;;3.55;71.48
39405;BME280;25121;51.090;17.038;2022-11-23T03:55:56;98976.31;;;3.54;71.85
39405;BME280;25121;51.090;17.038;2022-11-23T03:57:21;98980.66;;;3.55;71.68
39405;BME280;25121;51.090;17.038;2022-11-23T03:58:45;98976.97;;;3.56;71.73
39405;BME280;25121;51.090;17.038;2022-11-23T04:00:09;98975.16;;;3.57;71.75
39405;BME280;25121;51.090;17.038;2022-11-23T04:01:36;98975.97;;;3.57;72.01
39405;BME280;25121;51.090;17.038;2022-11-23T04:03:02;98979.50;;;3.58;71.77
39405;BME280;25121;51.090;17.038;2022-11-23T04:04:59;98980.16;;;3.60;72.00
39405;BME280;25121;51.090;17.038;2022-11-23T04:07:00;98982.81;;;3.60;71.67
39405;BME280;25121;51.090;17.038;2022-11-23T04:08:26;98981.84;;;3.61;71.70
39405;BME280;25121;51.090;17.038;2022-11-23T04:09:49;98972.84;;;3.62;71.67
39405;BME280;25121;51.090;17.038;2022-11-23T04:13:06;98978.16;;;3.62;71.53
39405;BME280;25121;51.090;17.038;2022-11-23T04:14:30;98977.34;;;3.61;71.70
39405;BME280;25121;51.090;17.038;2022-11-23T04:15:53;98974.69;;;3.61;71.78
39405;BME280;25121;51.090;17.038;2022-11-23T04:17:14;98970.19;;;3.62;71.73
39405;BME280;25121;51.090;17.038;2022-11-23T04:18:36;98974.53;;;3.63;71.71
39405;BME280;25121;51.090;17.038;2022-11-23T04:19:58;98981.66;;;3.62;71.90
39405;BME280;25121;51.090;17.038;2022-11-23T04:21:21;98977.19;;;3.63;71.94
39405;BME280;25121;51.090;17.038;2022-11-23T04:22:42;98980.81;;;3.62;71.75
39405;BME280;25121;51.090;17.038;2022-11-23T04:24:05;98986.97;;;3.62;71.91
39405;BME280;25121;51.090;17.038;2022-11-23T04:25:42;98979.00;;;3.62;71.94
39405;BME280;25121;51.090;17.038;2022-11-23T04:27:34;98973.84;;;3.61;71.67
39405;BME280;25121;51.090;17.038;2022-11-23T04:29:11;98974.84;;;3.60;72.03
39405;BME280;25121;51.090;17.038;2022-11-23T04:30:56;98983.66;;;3.60;72.07
39405;BME280;25121;51.090;17.038;2022-11-23T04:32:34;98979.19;;;3.61;71.92
39405;BME280;25121;51.090;17.038;2022-11-23T04:34:08;98974.69;;;3.61;72.02
39405;BME280;25121;51.090;17.038;2022-11-23T04:35:41;98979.19;;;3.61;71.97
39405;BME280;25121;51.090;17.038;2022-11-23T04:37:11;98977.19;;;3.63;72.17
39405;BME280;25121;51.090;17.038;2022-11-23T04:38:37;98972.84;;;3.62;71.90
39405;BME280;25121;51.090;17.038;2022-11-23T04:40:09;98977.19;;;3.63;71.80
39405;BME280;25121;51.090;17.038;2022-11-23T04:41:48;98975.38;;;3.63;72.04
39405;BME280;25121;51.090;17.038;2022-11-23T04:43:11;98974.38;;;3.64;72.09
39405;BME280;25121;51.090;17.038;2022-11-23T04:44:32;98979.53;;;3.66;72.00
39405;BME280;25121;51.090;17.038;2022-11-23T04:45:58;98971.38;;;3.67;72.24
39405;BME280;25121;51.090;17.038;2022-11-23T04:47:23;98966.94;;;3.68;72.10
39405;BME280;25121;51.090;17.038;2022-11-23T04:48:46;98968.44;;;3.71;72.28
39405;BME280;25121;51.090;17.038;2022-11-23T04:50:10;98978.75;;;3.74;72.41
39405;BME280;25121;51.090;17.038;2022-11-23T04:51:31;98968.78;;;3.76;72.38
39405;BME280;25121;51.090;17.038;2022-11-23T04:52:54;98969.47;;;3.78;72.18
39405;BME280;25121;51.090;17.038;2022-11-23T04:54:25;98972.63;;;3.81;72.20
39405;BME280;25121;51.090;17.038;2022-11-23T04:55:51;98973.31;;;3.83;72.05
39405;BME280;25121;51.090;17.038;2022-11-23T04:57:13;98969.63;;;3.84;71.98
39405;BME280;25121;51.090;17.038;2022-11-23T04:58:36;98973.97;;;3.85;71.76
39405;BME280;25121;51.090;17.038;2022-11-23T04:59:59;98974.81;;;3.86;71.50
39405;BME280;25121;51.090;17.038;2022-11-23T05:01:23;98979.31;;;3.85;71.55
39405;BME280;25121;51.090;17.038;2022-11-23T05:03:05;98974.97;;;3.84;71.84
39405;BME280;25121;51.090;17.038;2022-11-23T05:04:29;98965.16;;;3.85;71.47
39405;BME280;25121;51.090;17.038;2022-11-23T05:05:50;98963.50;;;3.84;71.71
39405;BME280;25121;51.090;17.038;2022-11-23T05:07:13;98969.63;;;3.84;71.51
39405;BME280;25121;51.090;17.038;2022-11-23T05:08:38;98973.97;;;3.85;71.50
39405;BME280;25121;51.090;17.038;2022-11-23T05:10:20;98970.47;;;3.85;71.77
39405;BME280;25121;51.090;17.038;2022-11-23T05:11:48;98975.63;;;3.86;71.69
39405;BME280;25121;51.090;17.038;2022-11-23T05:13:09;98969.31;;;3.87;71.69
39405;BME280;25121;51.090;17.038;2022-11-23T05:14:30;98970.00;;;3.89;71.80
39405;BME280;25121;51.090;17.038;2022-11-23T05:15:52;98967.34;;;3.89;71.84
39405;BME280;25121;51.090;17.038;2022-11-23T05:17:20;98968.00;;;3.92;71.69
39405;BME280;25121;51.090;17.038;2022-11-23T05:18:43;98972.19;;;3.94;71.57
39405;BME280;25121;51.090;17.038;2022-11-23T05:20:09;98980.00;;;3.96;71.71
39405;BME280;25121;51.090;17.038;2022-11-23T05:21:36;98985.00;;;3.99;71.56
39405;BME280;25121;51.090;17.038;2022-11-23T05:22:59;98988.47;;;3.99;71.34
39405;BME280;25121;51.090;17.038;2022-11-23T05:24:21;98981.50;;;3.98;71.36
39405;BME280;25121;51.090;17.038;2022-11-23T05:25:59;98982.47;;;3.97;71.33
39405;BME280;25121;51.090;17.038;2022-11-23T05:27:23;98982.47;;;3.97;71.34
39405;BME280;25121;51.090;17.038;2022-11-23T05:28:46;98977.34;;;3.96;71.35
39405;BME280;25121;51.090;17.038;2022-11-23T05:30:11;98980.00;;;3.96;71.46
39405;BME280;25121;51.090;17.038;2022-11-23T05:31:33;98978.16;;;3.96;71.32
39405;BME280;25121;51.090;17.038;2022-11-23T05:32:59;98983.81;;;3.93;71.44
39405;BME280;25121;51.090;17.038;2022-11-23T05:34:23;98981.66;;;3.97;71.20
39405;BME280;25121;51.090;17.038;2022-11-23T05:35:44;98977.16;;;3.97;71.24
39405;BME280;25121;51.090;17.038;2022-11-23T05:37:07;98974.50;;;3.97;71.37
39405;BME280;25121;51.090;17.038;2022-11-23T05:38:35;98978.66;;;4.00;71.50
39405;BME280;25121;51.090;17.038;2022-11-23T05:40:04;98981.31;;;4.00;71.43
39405;BME280;25121;51.090;17.038;2022-11-23T05:41:26;98977.69;;;4.01;71.32
39405;BME280;25121;51.090;17.038;2022-11-23T05:42:53;98981.19;;;4.01;71.31
39405;BME280;25121;51.090;17.038;2022-11-23T05:44:15;98979.34;;;4.02;71.44
39405;BME280;25121;51.090;17.038;2022-11-23T05:45:37;98981.84;;;4.03;71.47
39405;BME280;25121;51.090;17.038;2022-11-23T05:46:58;98981.69;;;4.05;71.47
39405;BME280;25121;51.090;17.038;2022-11-23T05:48:26;98987.66;;;4.07;71.46
39405;BME280;25121;51.090;17.038;2022-11-23T05:49:50;98984.03;;;4.08;71.21
39405;BME280;25121;51.090;17.038;2022-11-23T05:51:14;98983.03;;;4.09;71.25
39405;BME280;25121;51.090;17.038;2022-11-23T05:52:39;98981.19;;;4.09;71.31
39405;BME280;25121;51.090;17.038;2022-11-23T05:54:01;98981.06;;;4.11;71.21
39405;BME280;25121;51.090;17.038;2022-11-23T05:55:31;98987.19;;;4.12;71.23
39405;BME280;25121;51.090;17.038;2022-11-23T05:56:53;98985.38;;;4.12;71.04
39405;BME280;25121;51.090;17.038;2022-11-23T05:58:28;98984.38;;;4.13;70.99
39405;BME280;25121;51.090;17.038;2022-11-23T05:59:50;98983.56;;;4.13;70.92
39405;BME280;25121;51.090;17.038;2022-11-23T06:01:17;98983.56;;;4.13;70.92
39405;BME280;25121;51.090;17.038;2022-11-23T06:02:39;98981.06;;;4.11;70.86
39405;BME280;25121;51.090;17.038;2022-11-23T06:04:06;98985.53;;;4.10;71.16
39405;BME280;25121;51.090;17.038;2022-11-23T06:05:33;98981.19;;;4.09;70.80
39405;BME280;25121;51.090;17.038;2022-11-23T06:06:56;98990.03;;;4.10;70.72
39405;BME280;25121;51.090;17.038;2022-11-23T06:08:28;98998.97;;;4.09;70.84
39405;BME280;25121;51.090;17.038;2022-11-23T06:09:52;98992.84;;;4.08;70.73
39405;BME280;25121;51.090;17.038;2022-11-23T06:11:14;98994.69;;;4.08;70.98
39405;BME280;25121;51.090;17.038;2022-11-23T06:12:36;99001.16;;;4.05;70.94
39405;BME280;25121;51.090;17.038;2022-11-23T06:14:01;99004.78;;;4.04;70.74
39405;BME280;25121;51.090;17.038;2022-11-23T06:15:24;99004.78;;;4.04;70.77
39405;BME280;25121;51.090;17.038;2022-11-23T06:16:46;99006.94;;;4.01;70.52
39405;BME280;25121;51.090;17.038;2022-11-23T06:18:29;99005.56;;;3.97;70.32
39405;BME280;25121;51.090;17.038;2022-11-23T06:19:52;99020.19;;;3.93;70.63
39405;BME280;25121;51.090;17.038;2022-11-23T06:21:15;99016.84;;;3.91;70.62
39405;BME280;25121;51.090;17.038;2022-11-23T06:22:38;99022.47;;;3.87;70.68
39405;BME280;25121;51.090;17.038;2022-11-23T06:24:01;99021.97;;;3.84;70.84
39405;BME280;25121;51.090;17.038;2022-11-23T06:25:24;99029.25;;;3.82;70.90
39405;BME280;25121;51.090;17.038;2022-11-23T06:27:05;99026.94;;;3.79;71.04
39405;BME280;25121;51.090;17.038;2022-11-23T06:28:28;99032.38;;;3.77;70.96
39405;BME280;25121;51.090;17.038;2022-11-23T06:29:51;99035.38;;;3.74;71.02
39405;BME280;25121;51.090;17.038;2022-11-23T06:31:16;99034.69;;;3.72;70.99
39405;BME280;25121;51.090;17.038;2022-11-23T06:32:39;99033.03;;;3.71;71.45
39405;BME280;25121;51.090;17.038;2022-11-23T06:33:59;99036.66;;;3.70;71.26
39405;BME280;25121;51.090;17.038;2022-11-23T06:35:26;99036.66;;;3.70;71.54
39405;BME280;25121;51.090;17.038;2022-11-23T06:36:55;99035.00;;;3.69;71.39
39405;BME280;25121;51.090;17.038;2022-11-23T06:38:19;99036.00;;;3.68;71.46
39405;BME280;25121;51.090;17.038;2022-11-23T06:39:56;99036.97;;;3.67;71.55
39405;BME280;25121;51.090;17.038;2022-11-23T06:41:21;99040.47;;;3.67;71.47
39405;BME280;25121;51.090;17.038;2022-11-23T06:42:57;99046.78;;;3.66;71.21
39405;BME280;25121;51.090;17.038;2022-11-23T06:44:40;99048.75;;;3.64;71.18
39405;BME280;25121;51.090;17.038;2022-11-23T06:46:07;99044.44;;;3.63;71.33
39405;BME280;25121;51.090;17.038;2022-11-23T06:47:35;99046.41;;;3.61;71.34
39405;BME280;25121;51.090;17.038;2022-11-23T06:48:58;99041.25;;;3.60;71.45
39405;BME280;25121;51.090;17.038;2022-11-23T06:50:21;99048.56;;;3.58;71.36
39405;BME280;25121;51.090;17.038;2022-11-23T06:51:49;99050.38;;;3.57;71.49
39405;BME280;25121;51.090;17.038;2022-11-23T06:53:13;99044.41;;;3.55;71.52
39405;BME280;25121;51.090;17.038;2022-11-23T06:54:40;99051.69;;;3.53;71.68
39405;BME280;25121;51.090;17.038;2022-11-23T06:56:05;99046.38;;;3.53;71.66
39405;BME280;25121;51.090;17.038;2022-11-23T06:57:31;99054.50;;;3.52;71.64
39405;BME280;25121;51.090;17.038;2022-11-23T06:58:58;99056.31;;;3.51;71.57
39405;BME280;25121;51.090;17.038;2022-11-23T07:00:24;99058.28;;;3.49;71.67
39405;BME280;25121;51.090;17.038;2022-11-23T07:01:56;99051.31;;;3.48;71.59
39405;BME280;25121;51.090;17.038;2022-11-23T07:03:23;99050.47;;;3.48;71.76
39405;BME280;25121;51.090;17.038;2022-11-23T07:04:53;99053.44;;;3.44;71.67
39405;BME280;25121;51.090;17.038;2022-11-23T07:06:17;99053.59;;;3.43;71.53
39405;BME280;25121;51.090;17.038;2022-11-23T07:07:41;99055.41;;;3.42;71.98
39405;BME280;25121;51.090;17.038;2022-11-23T07:09:10;99057.25;;;3.42;71.79
39405;BME280;25121;51.090;17.038;2022-11-23T07:10:48;99060.91;;;3.41;72.03
39405;BME280;25121;51.090;17.038;2022-11-23T07:12:11;99055.59;;;3.41;71.80
39405;BME280;25121;51.090;17.038;2022-11-23T07:13:33;99052.25;;;3.39;72.02
39405;BME280;25121;51.090;17.038;2022-11-23T07:14:55;99069.84;;;3.40;72.08
39405;BME280;25121;51.090;17.038;2022-11-23T07:16:18;99062.72;;;3.40;72.13
39405;BME280;25121;51.090;17.038;2022-11-23T07:17:43;99061.88;;;3.40;72.24
39405;BME280;25121;51.090;17.038;2022-11-23T07:19:08;99064.38;;;3.41;72.04
39405;BME280;25121;51.090;17.038;2022-11-23T07:20:30;99056.56;;;3.40;72.08
39405;BME280;25121;51.090;17.038;2022-11-23T07:21:52;99058.25;;;3.41;72.10
39405;BME280;25121;51.090;17.038;2022-11-23T07:23:16;99061.72;;;3.41;72.14
39405;BME280;25121;51.090;17.038;2022-11-23T07:24:39;99061.56;;;3.43;72.25
39405;BME280;25121;51.090;17.038;2022-11-23T07:26:06;99060.72;;;3.42;72.03
39405;BME280;25121;51.090;17.038;2022-11-23T07:27:29;99069.53;;;3.43;72.11
39405;BME280;25121;51.090;17.038;2022-11-23T07:28:52;99059.88;;;3.42;72.09
39405;BME280;25121;51.090;17.038;2022-11-23T07:30:15;99068.84;;;3.41;72.50
39405;BME280;25121;51.090;17.038;2022-11-23T07:31:37;99068.84;;;3.41;72.06
39405;BME280;25121;51.090;17.038;2022-11-23T07:33:00;99072.34;;;3.41;72.36
39405;BME280;25121;51.090;17.038;2022-11-23T07:34:23;99069.53;;;3.43;72.39
39405;BME280;25121;51.090;17.038;2022-11-23T07:35:45;99066.88;;;3.43;72.49
39405;BME280;25121;51.090;17.038;2022-11-23T07:37:08;99066.72;;;3.44;72.59
39405;BME280;25121;51.090;17.038;2022-11-23T07:38:32;99076.38;;;3.45;72.30
39405;BME280;25121;51.090;17.038;2022-11-23T07:39:55;99072.72;;;3.47;72.24
39405;BME280;25121;51.090;17.038;2022-11-23T07:41:22;99076.19;;;3.47;72.56
39405;BME280;25121;51.090;17.038;2022-11-23T07:43:02;99079.41;;;3.51;72.45
39405;BME280;25121;51.090;17.038;2022-11-23T07:44:24;99072.06;;;3.53;72.59
39405;BME280;25121;51.090;17.038;2022-11-23T07:45:46;99073.75;;;3.54;72.64
39405;BME280;25121;51.090;17.038;2022-11-23T07:47:10;99079.44;;;3.59;72.47
39405;BME280;25121;51.090;17.038;2022-11-23T07:48:32;99084.44;;;3.62;72.21
39405;BME280;25121;51.090;17.038;2022-11-23T07:49:56;99080.63;;;3.64;72.29
39405;BME280;25121;51.090;17.038;2022-11-23T07:51:18;99088.47;;;3.66;72.16
39405;BME280;25121;51.090;17.038;2022-11-23T07:52:40;99086.63;;;3.66;72.16
39405;BME280;25121;51.090;17.038;2022-11-23T07:54:03;99084.13;;;3.65;72.16
39405;BME280;25121;51.090;17.038;2022-11-23T07:55:28;99089.28;;;3.66;72.09
39405;BME280;25121;51.090;17.038;2022-11-23T07:56:51;99097.94;;;3.69;72.04
39405;BME280;25121;51.090;17.038;2022-11-23T07:58:13;99100.44;;;3.70;72.13
39405;BME280;25121;51.090;17.038;2022-11-23T07:59:38;99100.28;;;3.72;71.87
39405;BME280;25121;51.090;17.038;2022-11-23T08:01:00;99098.47;;;3.72;71.95
39405;BME280;25121;51.090;17.038;2022-11-23T08:02:22;99107.44;;;3.71;71.91
39405;BME280;25121;51.090;17.038;2022-11-23T08:03:45;99104.78;;;3.71;71.88
39405;BME280;25121;51.090;17.038;2022-11-23T08:05:09;99105.59;;;3.72;71.81
39405;BME280;25121;51.090;17.038;2022-11-23T08:06:36;99105.59;;;3.72;71.98
39405;BME280;25121;51.090;17.038;2022-11-23T08:08:00;99115.25;;;3.73;71.97
39405;BME280;25121;51.090;17.038;2022-11-23T08:09:24;99108.94;;;3.74;72.01
39405;BME280;25121;51.090;17.038;2022-11-23T08:10:46;99106.28;;;3.74;71.91
39405;BME280;25121;51.090;17.038;2022-11-23T08:12:16;99108.81;;;3.75;72.00
39405;BME280;25121;51.090;17.038;2022-11-23T08:13:38;99111.59;;;3.74;71.88
39405;BME280;25121;51.090;17.038;2022-11-23T08:15:02;99112.28;;;3.76;72.00
39405;BME280;25121;51.090;17.038;2022-11-23T08:16:24;99109.63;;;3.76;71.81
39405;BME280;25121;51.090;17.038;2022-11-23T08:17:47;99110.44;;;3.76;71.79
39405;BME280;25121;51.090;17.038;2022-11-23T08:19:08;99109.44;;;3.77;71.99
39405;BME280;25121;51.090;17.038;2022-11-23T08:20:30;99111.81;;;3.80;71.95